Time;durP1;ratioP1;P1;durP2;ratioP2;P2;SDS_P1;SDS_P2;PMS_P1;PMS_P2;Temp;Humidity;BMP_temperature;BMP_pressure;BME280_temperature;BME280_humidity;BME280_pressure;Samples;Min_cycle;Max_cycle;Signal;HPM_P1;HPM_P2
2022/04/01 00:01:02;;;;;;;;;;;6.10;99.90;;;;;;5049807;28;19926;-63
2022/04/01 00:03:30;;;;;;;;;;;6.00;99.90;;;;;;5049384;28;19974;-63
2022/04/01 00:05:57;;;;;;;;;;;6.10;99.90;;;;;;5048187;28;19972;-63
2022/04/01 00:08:25;;;;;;;;;;;6.40;99.90;;;;;;5051393;28;20459;-62
2022/04/01 00:10:53;;;;;;;;;;;6.30;99.90;;;;;;5051402;28;19925;-63
2022/04/01 00:13:22;;;;;;;;;;;6.40;99.90;;;;;;5050211;28;19960;-63
2022/04/01 00:15:50;;;;;;;;;;;6.50;99.90;;;;;;5049862;28;20019;-63
2022/04/01 00:18:17;;;;;;;;;;;6.60;99.90;;;;;;5054477;28;19928;-62
2022/04/01 00:20:45;;;;;;;;;;;6.70;99.90;;;;;;5052055;28;19964;-62
2022/04/01 00:23:14;;;;;;;;;;;6.80;99.90;;;;;;5048477;28;19929;-62
2022/04/01 00:25:42;;;;;;;;;;;7.00;99.90;;;;;;5054442;28;19928;-62
2022/04/01 00:28:11;;;;;;;;;;;7.00;99.90;;;;;;5051802;28;20337;-63
2022/04/01 00:30:40;;;;;;;;;;;7.00;99.90;;;;;;5048923;28;19925;-62
2022/04/01 00:33:14;;;;;;;;;;;7.00;99.90;;;;;;5051328;28;19948;-62
2022/04/01 00:35:42;;;;;;;;;;;6.70;99.90;;;;;;5052129;28;20431;-62
2022/04/01 00:38:09;;;;;;;;;;;6.60;99.90;;;;;;5054081;28;19956;-62
2022/04/01 00:40:39;;;;;;;;;;;6.60;99.90;;;;;;5049714;28;20397;-63
2022/04/01 00:43:07;;;;;;;;;;;6.50;99.90;;;;;;5050070;28;19951;-63
2022/04/01 00:45:34;;;;;;;;;;;6.50;99.90;;;;;;5054393;28;19963;-62
2022/04/01 00:48:04;;;;;;;;;;;6.50;99.90;;;;;;5057237;28;20004;-62
2022/04/01 00:50:33;;;;;;;;;;;6.50;99.90;;;;;;5052835;28;19929;-63
2022/04/01 00:53:01;;;;;;;;;;;6.60;99.90;;;;;;5050413;28;20368;-62
2022/04/01 00:55:29;;;;;;;;;;;6.80;99.90;;;;;;5049495;28;19925;-63
2022/04/01 00:57:57;;;;;;;;;;;6.90;99.90;;;;;;5053592;28;20305;-63
2022/04/01 01:00:25;;;;;;;;;;;7.00;99.90;;;;;;5052776;28;19925;-62
2022/04/01 01:02:54;;;;;;;;;;;7.10;99.90;;;;;;5055975;28;19983;-63
2022/04/01 01:05:23;;;;;;;;;;;7.20;99.90;;;;;;5054711;28;19971;-63
2022/04/01 01:07:51;;;;;;;;;;;7.20;99.90;;;;;;5056159;28;19924;-63
2022/04/01 01:10:19;;;;;;;;;;;7.10;99.90;;;;;;5059471;28;19964;-63
2022/04/01 01:12:47;;;;;;;;;;;7.00;99.90;;;;;;5058441;28;19928;-62
2022/04/01 01:15:18;;;;;;;;;;;6.80;99.90;;;;;;5060161;28;19964;-63
2022/04/01 01:17:46;;;;;;;;;;;6.60;99.90;;;;;;5061257;28;19925;-62
2022/04/01 01:20:16;;;;;;;;;;;6.60;99.90;;;;;;5055891;28;19925;-62
2022/04/01 01:22:47;;;;;;;;;;;6.70;99.90;;;;;;5051692;28;19925;-62
2022/04/01 01:25:16;;;;;;;;;;;6.80;99.90;;;;;;5055083;28;19925;-62
2022/04/01 01:27:44;;;;;;;;;;;6.60;99.90;;;;;;5057919;28;19970;-62
2022/04/01 01:30:12;;;;;;;;;;;6.50;99.90;;;;;;5044597;28;19963;-62
2022/04/01 01:32:40;;;;;;;;;;;6.50;99.90;;;;;;5044860;28;19972;-61
2022/04/01 01:35:09;;;;;;;;;;;6.60;99.90;;;;;;5055053;28;19940;-62
2022/04/01 01:37:37;;;;;;;;;;;6.60;99.90;;;;;;5060000;28;20027;-62
2022/04/01 01:40:05;;;;;;;;;;;6.40;99.90;;;;;;5050655;28;19925;-62
2022/04/01 01:42:35;;;;;;;;;;;6.20;99.90;;;;;;5056670;28;19925;-62
2022/04/01 01:45:02;;;;;;;;;;;6.10;99.90;;;;;;5051923;28;19964;-63
2022/04/01 01:47:31;;;;;;;;;;;5.80;99.90;;;;;;5054872;28;19971;-63
2022/04/01 01:55:30;;;;;;;;;;;5.30;99.90;;;;;;5047713;28;19975;-62
2022/04/01 01:58:00;;;;;;;;;;;5.50;99.90;;;;;;5049744;28;20071;-61
2022/04/01 02:00:27;;;;;;;;;;;5.40;99.90;;;;;;5050594;28;19967;-61
2022/04/01 02:02:56;;;;;;;;;;;5.70;99.90;;;;;;5050865;28;20449;-62
2022/04/01 02:05:24;;;;;;;;;;;5.80;99.90;;;;;;5052091;28;19965;-61
2022/04/01 02:07:53;;;;;;;;;;;6.00;99.90;;;;;;5054627;28;19991;-62
2022/04/01 02:10:21;;;;;;;;;;;6.10;99.90;;;;;;5058664;28;19925;-62
2022/04/01 02:12:49;;;;;;;;;;;6.20;99.90;;;;;;5054052;28;19937;-62
2022/04/01 02:15:18;;;;;;;;;;;6.30;99.90;;;;;;5052943;28;19925;-62
2022/04/01 02:17:46;;;;;;;;;;;6.40;99.90;;;;;;5054834;28;20019;-62
2022/04/01 02:20:13;;;;;;;;;;;6.50;99.90;;;;;;5057627;28;19971;-61
2022/04/01 02:22:41;;;;;;;;;;;6.40;99.90;;;;;;5054972;28;20305;-62
2022/04/01 02:25:11;;;;;;;;;;;6.60;99.90;;;;;;5053241;28;19982;-62
2022/04/01 02:27:39;;;;;;;;;;;6.70;99.90;;;;;;5055680;28;20014;-61
2022/04/01 02:30:10;;;;;;;;;;;6.70;99.90;;;;;;5039668;28;19973;-62
2022/04/01 02:32:40;;;;;;;;;;;6.70;99.90;;;;;;5050897;28;19987;-62
2022/04/01 02:35:09;;;;;;;;;;;6.70;99.90;;;;;;5050581;28;20478;-62
2022/04/01 02:37:39;;;;;;;;;;;6.50;99.90;;;;;;5059050;28;20402;-62
2022/04/01 02:40:07;;;;;;;;;;;6.00;99.90;;;;;;5046996;28;19925;-62
2022/04/01 02:42:35;;;;;;;;;;;5.60;99.90;;;;;;5049585;28;19925;-62
2022/04/01 02:45:03;;;;;;;;;;;5.50;99.90;;;;;;5053085;28;19963;-62
2022/04/01 02:47:31;;;;;;;;;;;5.30;99.90;;;;;;5055446;28;19974;-59
2022/04/01 02:50:00;;;;;;;;;;;5.10;99.90;;;;;;5052805;28;19943;-61
2022/04/01 02:52:28;;;;;;;;;;;5.00;99.90;;;;;;5051866;28;19952;-62
2022/04/01 02:54:56;;;;;;;;;;;4.90;99.90;;;;;;5054391;28;19925;-62
2022/04/01 02:57:24;;;;;;;;;;;4.90;99.90;;;;;;5051467;28;20539;-63
2022/04/01 02:59:52;;;;;;;;;;;4.70;99.90;;;;;;5047109;28;19967;-62
2022/04/01 03:02:20;;;;;;;;;;;4.60;99.90;;;;;;5050334;28;19929;-62
2022/04/01 03:04:48;;;;;;;;;;;4.60;99.90;;;;;;5056889;28;20401;-62
2022/04/01 03:07:18;;;;;;;;;;;4.50;99.90;;;;;;5053985;28;19925;-62
2022/04/01 03:09:46;;;;;;;;;;;4.20;99.90;;;;;;5055010;28;20006;-62
2022/04/01 03:12:13;;;;;;;;;;;4.10;99.90;;;;;;5051475;28;19925;-63
2022/04/01 03:14:41;;;;;;;;;;;4.10;99.90;;;;;;5057179;28;19933;-62
2022/04/01 03:17:10;;;;;;;;;;;4.10;99.90;;;;;;5054063;28;20409;-62
2022/04/01 03:19:39;;;;;;;;;;;4.20;99.90;;;;;;5053748;28;19925;-62
2022/04/01 03:22:06;;;;;;;;;;;4.20;99.90;;;;;;5050555;28;19971;-62
2022/04/01 03:24:36;;;;;;;;;;;4.10;99.90;;;;;;5057484;28;19936;-63
2022/04/01 03:27:04;;;;;;;;;;;4.00;99.90;;;;;;5045332;28;19925;-62
2022/04/01 03:29:32;;;;;;;;;;;3.90;99.90;;;;;;5054841;28;20442;-62
2022/04/01 03:32:00;;;;;;;;;;;3.90;99.90;;;;;;5044148;28;20424;-62
2022/04/01 03:34:28;;;;;;;;;;;3.80;99.90;;;;;;5054626;28;19925;-62
2022/04/01 03:36:56;;;;;;;;;;;3.80;99.90;;;;;;5050605;28;19925;-62
2022/04/01 03:39:24;;;;;;;;;;;3.80;99.90;;;;;;5058232;28;19979;-62
2022/04/01 03:41:54;;;;;;;;;;;3.80;99.90;;;;;;5048896;28;20015;-62
2022/04/01 03:44:24;;;;;;;;;;;3.80;99.90;;;;;;5056302;28;19925;-62
2022/04/01 03:47:00;;;;;;;;;;;3.80;99.90;;;;;;5055385;28;21148;-61
2022/04/01 03:49:29;;;;;;;;;;;3.80;99.90;;;;;;5052253;28;20301;-61
2022/04/01 03:51:57;;;;;;;;;;;3.90;99.90;;;;;;5057093;28;19959;-62
2022/04/01 03:54:25;;;;;;;;;;;3.80;99.90;;;;;;5054415;28;20015;-62
2022/04/01 03:56:57;;;;;;;;;;;3.90;99.90;;;;;;5052913;28;20364;-62
2022/04/01 03:59:26;;;;;;;;;;;3.90;99.90;;;;;;5049600;28;19987;-62
2022/04/01 04:01:54;;;;;;;;;;;3.80;99.90;;;;;;5047568;28;19964;-61
2022/04/01 04:04:22;;;;;;;;;;;3.80;99.90;;;;;;5051306;28;19925;-62
2022/04/01 04:06:51;;;;;;;;;;;3.80;99.90;;;;;;5052377;28;19968;-62
2022/04/01 04:09:21;;;;;;;;;;;3.70;99.90;;;;;;5034736;28;20008;-61
2022/04/01 04:11:50;;;;;;;;;;;3.70;99.90;;;;;;5052242;28;19990;-61
2022/04/01 04:14:21;;;;;;;;;;;3.80;99.90;;;;;;5044559;28;20019;-63
2022/04/01 04:16:49;;;;;;;;;;;3.80;99.90;;;;;;5046616;28;19924;-62
2022/04/01 04:19:20;;;;;;;;;;;3.80;99.90;;;;;;5052289;28;20001;-61
2022/04/01 04:21:50;;;;;;;;;;;3.90;99.90;;;;;;5053169;28;19967;-61
2022/04/01 04:24:18;;;;;;;;;;;3.80;99.90;;;;;;5053826;28;20381;-61
2022/04/01 04:26:47;;;;;;;;;;;3.70;99.90;;;;;;5053807;28;19924;-62
2022/04/01 04:29:16;;;;;;;;;;;3.70;99.90;;;;;;5050415;28;19924;-61
2022/04/01 04:31:51;;;;;;;;;;;3.70;99.90;;;;;;5052796;28;20424;-62
2022/04/01 04:34:21;;;;;;;;;;;3.60;99.90;;;;;;5055248;28;19928;-62
2022/04/01 04:36:51;;;;;;;;;;;3.70;99.90;;;;;;5049055;28;19979;-63
2022/04/01 04:39:29;;;;;;;;;;;3.70;99.90;;;;;;5030387;28;20020;-63
2022/04/01 04:41:57;;;;;;;;;;;3.70;99.90;;;;;;5021636;28;19933;-62
2022/04/01 04:44:28;;;;;;;;;;;3.70;99.90;;;;;;5026392;28;20020;-63
2022/04/01 04:46:58;;;;;;;;;;;3.70;99.90;;;;;;5023795;28;20051;-62
2022/04/01 04:49:27;;;;;;;;;;;3.70;99.90;;;;;;5022544;28;20004;-63
2022/04/01 04:51:56;;;;;;;;;;;3.70;99.90;;;;;;5024563;28;20059;-62
2022/04/01 04:54:25;;;;;;;;;;;3.70;99.90;;;;;;5024741;28;19932;-62
2022/04/01 04:56:53;;;;;;;;;;;3.70;99.90;;;;;;5023293;28;19937;-62
2022/04/01 04:59:22;;;;;;;;;;;3.80;99.90;;;;;;5024738;28;20050;-62
2022/04/01 05:01:55;;;;;;;;;;;3.90;99.90;;;;;;5023010;28;20030;-62
2022/04/01 05:04:39;;;;;;;;;;;4.00;99.90;;;;;;5023641;28;19940;-63
2022/04/01 05:07:11;;;;;;;;;;;4.00;99.90;;;;;;5023102;28;20374;-62
2022/04/01 05:09:45;;;;;;;;;;;4.00;99.90;;;;;;5024851;28;19936;-63
2022/04/01 05:12:21;;;;;;;;;;;4.10;99.90;;;;;;5023418;28;19933;-62
2022/04/01 05:14:57;;;;;;;;;;;4.00;99.90;;;;;;5021015;28;19933;-62
2022/04/01 05:17:27;;;;;;;;;;;3.90;99.90;;;;;;5025970;28;19933;-63
2022/04/01 05:19:59;;;;;;;;;;;3.80;99.90;;;;;;5025114;28;20942;-63
2022/04/01 05:22:34;;;;;;;;;;;3.80;99.90;;;;;;5022173;28;19940;-62
2022/04/01 05:25:02;;;;;;;;;;;4.00;99.90;;;;;;5021628;28;20636;-62
2022/04/01 05:27:31;;;;;;;;;;;3.80;99.90;;;;;;5022007;28;19933;-62
2022/04/01 05:30:04;;;;;;;;;;;3.80;99.90;;;;;;5022454;28;19940;-63
2022/04/01 05:32:34;;;;;;;;;;;3.80;99.90;;;;;;5022973;28;19934;-62
2022/04/01 05:35:06;;;;;;;;;;;3.70;99.90;;;;;;5007576;28;19932;-62
2022/04/01 05:37:35;;;;;;;;;;;3.80;99.90;;;;;;5026031;28;19936;-64
2022/04/01 05:40:05;;;;;;;;;;;3.70;99.90;;;;;;5021441;28;19933;-62
2022/04/01 05:42:33;;;;;;;;;;;3.60;99.90;;;;;;5019867;28;19933;-62
2022/04/01 05:45:02;;;;;;;;;;;3.70;99.90;;;;;;5030806;28;19944;-63
2022/04/01 05:47:31;;;;;;;;;;;3.80;99.90;;;;;;5022705;28;20000;-62
2022/04/01 05:50:00;;;;;;;;;;;4.00;99.90;;;;;;5023393;28;19940;-62
2022/04/01 05:52:29;;;;;;;;;;;3.80;99.90;;;;;;5022142;28;19973;-63
2022/04/01 05:54:57;;;;;;;;;;;3.70;99.90;;;;;;5025576;28;20048;-62
2022/04/01 05:57:25;;;;;;;;;;;3.60;99.90;;;;;;5025268;28;19933;-63
2022/04/01 05:59:53;;;;;;;;;;;3.60;99.90;;;;;;5024474;28;19933;-62
2022/04/01 06:02:33;;;;;;;;;;;3.50;99.90;;;;;;5021814;28;19965;-62
2022/04/01 06:05:15;;;;;;;;;;;3.40;99.90;;;;;;5023388;28;19983;-64
2022/04/01 06:07:51;;;;;;;;;;;3.40;99.90;;;;;;5021807;28;20452;-62
2022/04/01 06:10:22;;;;;;;;;;;3.60;99.90;;;;;;5044634;28;19978;-62
2022/04/01 06:12:56;;;;;;;;;;;3.60;99.90;;;;;;5042502;28;19968;-62
2022/04/01 06:15:27;;;;;;;;;;;3.60;99.90;;;;;;5052787;28;19929;-62
2022/04/01 06:18:02;;;;;;;;;;;3.70;99.90;;;;;;5053035;28;19978;-62
2022/04/01 06:20:32;;;;;;;;;;;3.70;99.90;;;;;;5052879;28;19928;-62
2022/04/01 06:23:06;;;;;;;;;;;3.60;99.90;;;;;;5052247;28;19971;-62
2022/04/01 06:25:38;;;;;;;;;;;3.50;99.90;;;;;;5052693;28;19932;-62
2022/04/01 06:28:15;;;;;;;;;;;3.30;99.90;;;;;;5048307;28;19925;-62
2022/04/01 06:30:43;;;;;;;;;;;3.40;99.90;;;;;;5065838;28;20347;-64
2022/04/01 06:33:18;;;;;;;;;;;3.50;99.90;;;;;;5071042;28;20278;-64
2022/04/01 06:35:50;;;;;;;;;;;3.40;99.90;;;;;;5071959;28;19928;-61
2022/04/01 06:38:21;;;;;;;;;;;3.30;99.90;;;;;;5071862;28;20027;-62
2022/04/01 06:40:57;;;;;;;;;;;3.40;99.90;;;;;;5072206;28;19974;-62
2022/04/01 06:43:26;;;;;;;;;;;3.40;99.90;;;;;;5070482;28;19972;-62
2022/04/01 06:45:54;;;;;;;;;;;3.30;99.90;;;;;;5071544;28;20152;-62
2022/04/01 06:48:22;;;;;;;;;;;3.30;99.90;;;;;;5071794;28;19928;-61
2022/04/01 06:50:50;;;;;;;;;;;3.20;99.90;;;;;;5071495;28;20347;-60
2022/04/01 06:53:18;;;;;;;;;;;3.20;99.90;;;;;;5071041;28;20348;-62
2022/04/01 06:55:47;;;;;;;;;;;3.20;99.90;;;;;;5070884;28;20400;-63
2022/04/01 06:58:15;;;;;;;;;;;3.20;99.90;;;;;;5056762;28;20378;-60
2022/04/01 07:00:44;;;;;;;;;;;3.20;99.90;;;;;;5057242;28;20398;-62
2022/04/01 07:03:12;;;;;;;;;;;3.30;99.90;;;;;;5070647;28;19931;-62
2022/04/01 07:05:40;;;;;;;;;;;3.20;99.90;;;;;;5071425;28;19924;-63
2022/04/01 07:08:08;;;;;;;;;;;3.20;99.90;;;;;;5071126;28;19962;-63
2022/04/01 07:10:36;;;;;;;;;;;3.20;99.90;;;;;;5071183;28;20370;-63
2022/04/01 07:13:05;;;;;;;;;;;3.20;99.90;;;;;;5070635;28;19925;-63
2022/04/01 07:15:33;;;;;;;;;;;3.20;99.90;;;;;;5070956;28;19925;-63
2022/04/01 07:18:02;;;;;;;;;;;3.10;99.90;;;;;;5071170;28;19978;-64
2022/04/01 07:20:29;;;;;;;;;;;3.10;99.90;;;;;;5071116;28;19924;-63
2022/04/01 07:22:57;;;;;;;;;;;3.20;99.90;;;;;;5070148;28;19986;-62
2022/04/01 07:25:25;;;;;;;;;;;3.20;99.90;;;;;;5071046;28;19964;-63
2022/04/01 07:27:54;;;;;;;;;;;3.10;99.90;;;;;;5049795;28;19924;-62
2022/04/01 07:30:23;;;;;;;;;;;3.10;99.90;;;;;;5057729;28;20030;-63
2022/04/01 07:32:54;;;;;;;;;;;3.10;99.90;;;;;;5070189;28;20035;-63
2022/04/01 07:35:22;;;;;;;;;;;3.10;99.90;;;;;;5070962;28;19928;-63
2022/04/01 07:37:50;;;;;;;;;;;3.30;99.90;;;;;;5070938;28;20027;-63
2022/04/01 07:40:21;;;;;;;;;;;3.30;99.90;;;;;;5070968;28;19970;-63
2022/04/01 07:42:49;;;;;;;;;;;3.30;99.90;;;;;;5070106;28;19981;-63
2022/04/01 07:45:17;;;;;;;;;;;3.30;99.90;;;;;;5070529;28;19954;-63
2022/04/01 07:47:47;;;;;;;;;;;3.30;99.90;;;;;;5070517;28;19929;-63
2022/04/01 07:50:15;;;;;;;;;;;3.20;99.90;;;;;;5070745;28;19928;-63
2022/04/01 07:52:44;;;;;;;;;;;3.30;99.90;;;;;;5069990;28;20405;-63
2022/04/01 07:55:13;;;;;;;;;;;3.30;99.90;;;;;;5070665;28;19931;-63
2022/04/01 07:57:42;;;;;;;;;;;3.30;99.90;;;;;;5061842;28;19924;-62
2022/04/01 08:00:15;;;;;;;;;;;3.20;99.90;;;;;;5067352;28;19978;-63
2022/04/01 08:02:43;;;;;;;;;;;3.10;99.90;;;;;;5074316;28;19925;-63
2022/04/01 08:05:12;;;;;;;;;;;3.20;99.90;;;;;;5074566;28;20378;-63
2022/04/01 08:07:40;;;;;;;;;;;3.10;99.90;;;;;;5074882;28;20271;-63
2022/04/01 08:10:08;;;;;;;;;;;3.10;99.90;;;;;;5074453;28;19928;-62
2022/04/01 08:12:42;;;;;;;;;;;3.20;99.90;;;;;;5073843;28;19924;-62
2022/04/01 08:15:11;;;;;;;;;;;3.20;99.90;;;;;;5074094;28;20015;-63
2022/04/01 08:17:38;;;;;;;;;;;3.20;99.90;;;;;;5074483;28;19978;-63
2022/04/01 08:20:07;;;;;;;;;;;3.30;99.90;;;;;;5074374;28;19928;-63
2022/04/01 08:22:36;;;;;;;;;;;3.40;99.90;;;;;;5073578;28;19928;-62
2022/04/01 08:25:04;;;;;;;;;;;3.40;99.90;;;;;;5074142;28;19931;-63
2022/04/01 08:27:32;;;;;;;;;;;3.40;99.90;;;;;;5068383;28;20339;-63
2022/04/01 08:30:00;;;;;;;;;;;3.50;99.90;;;;;;5049304;28;19925;-63
2022/04/01 08:32:29;;;;;;;;;;;3.40;99.90;;;;;;5053973;28;19929;-63
2022/04/01 08:34:57;;;;;;;;;;;3.30;99.90;;;;;;5054730;28;20036;-62
2022/04/01 08:37:25;;;;;;;;;;;3.30;99.90;;;;;;5054939;28;19928;-63
2022/04/01 08:39:54;;;;;;;;;;;3.40;99.90;;;;;;5054784;28;19929;-62
2022/04/01 08:42:22;;;;;;;;;;;3.30;99.90;;;;;;5054069;28;20193;-63
2022/04/01 08:44:51;;;;;;;;;;;3.20;99.90;;;;;;5054600;28;19925;-63
2022/04/01 08:47:19;;;;;;;;;;;3.20;99.90;;;;;;5054903;28;19925;-63
2022/04/01 08:49:48;;;;;;;;;;;3.20;99.90;;;;;;5054923;28;20024;-62
2022/04/01 08:52:16;;;;;;;;;;;3.20;99.90;;;;;;5053686;28;20497;-62
2022/04/01 08:54:44;;;;;;;;;;;3.30;99.90;;;;;;5054564;28;19928;-63
2022/04/01 08:57:17;;;;;;;;;;;3.40;99.90;;;;;;5050219;28;20360;-63
2022/04/01 08:59:45;;;;;;;;;;;3.30;99.90;;;;;;5059615;28;19998;-62
2022/04/01 09:02:12;;;;;;;;;;;3.30;99.90;;;;;;5072606;28;20027;-63
2022/04/01 09:04:40;;;;;;;;;;;3.30;99.90;;;;;;5073343;28;19925;-63
2022/04/01 09:07:12;;;;;;;;;;;3.30;99.90;;;;;;5072823;28;19928;-63
2022/04/01 09:09:40;;;;;;;;;;;3.40;99.90;;;;;;5073453;28;20050;-62
2022/04/01 09:12:09;;;;;;;;;;;3.40;99.90;;;;;;5072499;28;20031;-63
2022/04/01 09:14:38;;;;;;;;;;;3.30;99.90;;;;;;5073216;28;19967;-62
2022/04/01 09:17:06;;;;;;;;;;;3.30;99.90;;;;;;5063670;28;19964;-63
2022/04/01 09:19:34;;;;;;;;;;;3.30;99.90;;;;;;5059902;28;19960;-63
2022/04/01 09:22:16;;;;;;;;;;;3.30;99.90;;;;;;5051489;28;20378;-62
2022/04/01 09:24:54;;;;;;;;;;;3.30;99.90;;;;;;5073578;28;19990;-63
2022/04/01 09:27:36;;;;;;;;;;;3.40;99.90;;;;;;5073340;28;20031;-63
2022/04/01 09:30:05;;;;;;;;;;;3.50;99.90;;;;;;5073056;28;19968;-62
2022/04/01 09:32:36;;;;;;;;;;;3.50;99.90;;;;;;5071901;28;20336;-64
2022/04/01 09:35:04;;;;;;;;;;;3.50;99.90;;;;;;5047152;28;19931;-62
2022/04/01 09:37:39;;;;;;;;;;;3.40;99.90;;;;;;5047247;28;19929;-62
2022/04/01 09:40:07;;;;;;;;;;;3.40;99.90;;;;;;5053646;28;19933;-63
2022/04/01 09:42:36;;;;;;;;;;;3.40;99.90;;;;;;5052975;28;20390;-62
2022/04/01 09:45:06;;;;;;;;;;;3.50;99.90;;;;;;5053561;28;19964;-62
2022/04/01 09:47:35;;;;;;;;;;;3.50;99.90;;;;;;5060874;28;19925;-62
2022/04/01 09:50:09;;;;;;;;;;;3.40;99.90;;;;;;5048292;28;19960;-64
2022/04/01 09:52:37;;;;;;;;;;;3.30;99.90;;;;;;5052811;28;20350;-61
2022/04/01 09:55:06;;;;;;;;;;;3.30;99.90;;;;;;5053451;28;19925;-62
2022/04/01 09:57:34;;;;;;;;;;;3.40;99.90;;;;;;5053292;28;20382;-62
2022/04/01 10:00:02;;;;;;;;;;;3.50;99.90;;;;;;5053333;28;19994;-62
2022/04/01 10:02:31;;;;;;;;;;;3.50;99.90;;;;;;5052319;28;19925;-61
2022/04/01 10:05:00;;;;;;;;;;;3.40;99.90;;;;;;5053435;28;19925;-63
2022/04/01 10:07:29;;;;;;;;;;;3.50;99.90;;;;;;5053041;28;19924;-60
2022/04/01 10:09:57;;;;;;;;;;;3.50;99.90;;;;;;5052996;28;20011;-63
2022/04/01 10:12:30;;;;;;;;;;;3.50;99.90;;;;;;5051902;28;19956;-62
2022/04/01 10:15:00;;;;;;;;;;;3.50;99.90;;;;;;5053000;28;19931;-60
2022/04/01 10:17:51;;;;;;;;;;;3.50;99.90;;;;;;5051153;28;19928;-62
2022/04/01 10:20:19;;;;;;;;;;;3.50;99.90;;;;;;5062863;28;19924;-60
2022/04/01 10:22:47;;;;;;;;;;;3.60;99.90;;;;;;5071214;28;19924;-62
2022/04/01 10:25:16;;;;;;;;;;;3.60;99.90;;;;;;5071960;28;20031;-62
2022/04/01 10:27:48;;;;;;;;;;;3.60;99.90;;;;;;5071945;28;19951;-61
2022/04/01 10:30:17;;;;;;;;;;;3.60;99.90;;;;;;5071849;28;19967;-62
2022/04/01 10:32:45;;;;;;;;;;;3.60;99.90;;;;;;5070776;28;19955;-62
2022/04/01 10:35:23;;;;;;;;;;;3.70;99.90;;;;;;5047033;28;19925;-62
2022/04/01 10:37:55;;;;;;;;;;;3.60;99.90;;;;;;5053084;28;19971;-62
2022/04/01 10:40:24;;;;;;;;;;;3.60;99.90;;;;;;5052636;28;19925;-63
2022/04/01 10:42:52;;;;;;;;;;;3.50;99.90;;;;;;5051420;28;19925;-62
2022/04/01 10:45:24;;;;;;;;;;;3.50;99.90;;;;;;5052517;28;19967;-62
2022/04/01 10:53:33;;;;;;;;;;;3.80;99.90;;;;;;5051542;28;19933;-62
2022/04/01 10:56:15;;;;;;;;;;;3.80;99.90;;;;;;5052168;28;19925;-62
2022/04/01 10:59:00;;;;;;;;;;;4.00;99.90;;;;;;5032355;28;19979;-62
2022/04/01 11:01:28;;;;;;;;;;;3.90;99.90;;;;;;5052030;28;19929;-62
2022/04/01 11:04:01;;;;;;;;;;;3.70;99.90;;;;;;5051253;28;19925;-62
2022/04/01 11:06:30;;;;;;;;;;;3.70;99.90;;;;;;5052236;28;19935;-62
2022/04/01 11:08:57;;;;;;;;;;;3.70;99.90;;;;;;5052067;28;20413;-62
2022/04/01 11:11:32;;;;;;;;;;;3.70;99.90;;;;;;5051981;28;19924;-61
2022/04/01 11:14:03;;;;;;;;;;;3.70;99.90;;;;;;5051389;28;19975;-62
2022/04/01 11:16:45;;;;;;;;;;;3.70;99.90;;;;;;5051829;28;19925;-62
2022/04/01 11:19:14;;;;;;;;;;;3.70;99.90;;;;;;5049915;28;19948;-62
2022/04/01 11:21:44;;;;;;;;;;;3.80;99.90;;;;;;5051633;28;19925;-63
2022/04/01 11:24:22;;;;;;;;;;;3.70;99.90;;;;;;5051095;28;19974;-62
2022/04/01 11:26:50;;;;;;;;;;;3.70;99.90;;;;;;5051966;28;20023;-61
2022/04/01 11:29:23;;;;;;;;;;;3.60;99.90;;;;;;5051819;28;20011;-63
2022/04/01 11:32:02;;;;;;;;;;;3.50;99.90;;;;;;5051136;28;19929;-62
2022/04/01 11:34:29;;;;;;;;;;;3.60;99.90;;;;;;5051760;28;19925;-63
2022/04/01 11:37:02;;;;;;;;;;;3.70;99.90;;;;;;5051795;28;19925;-63
2022/04/01 11:39:30;;;;;;;;;;;3.80;99.90;;;;;;5045265;28;19971;-63
2022/04/01 11:41:58;;;;;;;;;;;3.90;99.90;;;;;;5044568;28;20361;-62
2022/04/01 11:44:25;;;;;;;;;;;4.00;99.90;;;;;;5070758;28;19929;-63
2022/04/01 11:46:54;;;;;;;;;;;4.10;99.90;;;;;;5065174;28;19960;-63
2022/04/01 11:49:26;;;;;;;;;;;4.00;99.90;;;;;;5045450;28;20337;-63
2022/04/01 11:51:54;;;;;;;;;;;4.00;99.90;;;;;;5062815;28;19967;-62
2022/04/01 11:54:23;;;;;;;;;;;3.80;99.90;;;;;;5070877;28;20337;-63
2022/04/01 11:56:51;;;;;;;;;;;3.70;99.90;;;;;;5045240;28;19964;-63
2022/04/01 11:59:19;;;;;;;;;;;3.70;99.90;;;;;;5051486;28;19979;-63
2022/04/01 12:01:57;;;;;;;;;;;3.70;99.90;;;;;;5051190;28;19971;-63
2022/04/01 12:04:29;;;;;;;;;;;3.60;99.90;;;;;;5051963;28;20318;-62
2022/04/01 12:09:47;;;;;;;;;;;3.30;99.90;;;;;;5051499;28;19924;-62
2022/04/01 12:12:22;;;;;;;;;;;3.20;99.90;;;;;;5050228;28;20342;-63
2022/04/01 12:14:49;;;;;;;;;;;3.30;99.90;;;;;;5051324;28;19929;-63
2022/04/01 12:17:18;;;;;;;;;;;3.40;99.90;;;;;;5045783;28;19976;-62
2022/04/01 12:19:46;;;;;;;;;;;3.40;99.90;;;;;;5048986;28;19978;-63
2022/04/01 12:22:14;;;;;;;;;;;3.40;99.90;;;;;;5069337;28;20272;-62
2022/04/01 12:24:42;;;;;;;;;;;3.50;99.90;;;;;;5070342;28;19924;-63
2022/04/01 12:27:12;;;;;;;;;;;3.60;99.90;;;;;;5070526;28;20081;-63
2022/04/01 12:29:44;;;;;;;;;;;3.60;99.90;;;;;;5070696;28;19925;-63
2022/04/01 12:32:17;;;;;;;;;;;3.50;99.90;;;;;;5069177;28;20392;-62
2022/04/01 12:34:45;;;;;;;;;;;3.50;99.90;;;;;;5070118;28;19978;-63
2022/04/01 12:37:14;;;;;;;;;;;3.40;99.90;;;;;;5070447;28;19978;-63
2022/04/01 12:39:45;;;;;;;;;;;3.30;99.90;;;;;;5070480;28;19978;-63
2022/04/01 12:42:15;;;;;;;;;;;3.20;99.90;;;;;;5070463;28;19924;-63
2022/04/01 12:44:44;;;;;;;;;;;3.30;99.90;;;;;;5073737;28;19987;-63
2022/04/01 12:47:25;;;;;;;;;;;3.40;99.90;;;;;;5063220;28;19925;-63
2022/04/01 12:49:53;;;;;;;;;;;3.40;99.90;;;;;;5061965;28;20026;-63
2022/04/01 12:52:23;;;;;;;;;;;3.30;99.90;;;;;;5072718;28;19925;-62
2022/04/01 12:54:53;;;;;;;;;;;3.10;99.90;;;;;;5073579;28;19929;-63
2022/04/01 12:57:22;;;;;;;;;;;2.90;99.90;;;;;;5073722;28;19929;-64
2022/04/01 12:59:50;;;;;;;;;;;2.70;99.90;;;;;;5073660;28;20449;-63
2022/04/01 13:02:19;;;;;;;;;;;2.60;99.90;;;;;;5072565;28;19994;-63
2022/04/01 13:04:49;;;;;;;;;;;2.50;99.90;;;;;;5073418;28;20347;-63
2022/04/01 13:07:18;;;;;;;;;;;2.50;99.90;;;;;;5073684;28;20394;-63
2022/04/01 13:09:48;;;;;;;;;;;2.60;99.90;;;;;;5073924;28;19928;-63
2022/04/01 13:12:16;;;;;;;;;;;2.70;99.90;;;;;;5072377;28;19932;-63
2022/04/01 13:14:45;;;;;;;;;;;2.70;99.90;;;;;;5073437;28;19963;-63
2022/04/01 13:17:14;;;;;;;;;;;2.80;99.90;;;;;;5068841;28;19963;-63
2022/04/01 13:19:43;;;;;;;;;;;2.70;99.90;;;;;;5048924;28;20019;-63
2022/04/01 13:22:11;;;;;;;;;;;2.80;99.90;;;;;;5053157;28;19955;-63
2022/04/01 13:24:39;;;;;;;;;;;2.90;99.90;;;;;;5054057;28;19972;-62
2022/04/01 13:27:08;;;;;;;;;;;2.90;99.90;;;;;;5053967;28;19963;-63
2022/04/01 13:29:36;;;;;;;;;;;3.10;99.90;;;;;;5054261;28;19925;-63
2022/04/01 13:32:06;;;;;;;;;;;3.10;99.90;;;;;;5053039;28;19947;-61
2022/04/01 13:34:34;;;;;;;;;;;3.00;99.90;;;;;;5053563;28;19925;-63
2022/04/01 13:37:02;;;;;;;;;;;2.90;99.90;;;;;;5053896;28;20380;-63
2022/04/01 13:39:29;;;;;;;;;;;2.90;99.90;;;;;;5053980;28;19983;-63
2022/04/01 13:41:58;;;;;;;;;;;3.00;99.90;;;;;;5053406;28;19964;-62
2022/04/01 13:44:26;;;;;;;;;;;2.80;99.90;;;;;;5053671;28;19929;-63
2022/04/01 13:46:54;;;;;;;;;;;2.80;99.90;;;;;;5051405;28;20301;-63
2022/04/01 13:49:24;;;;;;;;;;;2.90;99.90;;;;;;5052929;28;20396;-63
2022/04/01 13:51:52;;;;;;;;;;;2.90;99.90;;;;;;5072718;28;19954;-62
2022/04/01 13:54:20;;;;;;;;;;;2.90;99.90;;;;;;5072649;28;19928;-63
2022/04/01 13:56:48;;;;;;;;;;;2.80;99.90;;;;;;5072853;28;19985;-62
2022/04/01 13:59:16;;;;;;;;;;;2.70;99.90;;;;;;5072747;28;20015;-62
2022/04/01 14:01:44;;;;;;;;;;;2.70;99.90;;;;;;5072334;28;19931;-63
2022/04/01 14:04:12;;;;;;;;;;;2.70;99.90;;;;;;5071561;28;19925;-62
2022/04/01 14:06:41;;;;;;;;;;;2.60;99.90;;;;;;5072663;28;19974;-63
2022/04/01 14:09:12;;;;;;;;;;;2.60;99.90;;;;;;5054540;28;19967;-64
2022/04/01 14:12:00;;;;;;;;;;;2.60;99.90;;;;;;5071577;28;19935;-63
2022/04/01 14:14:28;;;;;;;;;;;2.60;99.90;;;;;;5072366;28;19928;-63
2022/04/01 14:16:56;;;;;;;;;;;2.50;99.90;;;;;;5066784;28;19971;-65
2022/04/01 14:19:24;;;;;;;;;;;2.40;99.90;;;;;;5052106;28;19991;-63
2022/04/01 14:21:53;;;;;;;;;;;2.50;99.90;;;;;;5054537;28;20042;-64
2022/04/01 14:24:21;;;;;;;;;;;2.70;99.90;;;;;;5052321;28;20435;-64
2022/04/01 14:26:52;;;;;;;;;;;2.80;99.90;;;;;;5052654;28;19971;-65
2022/04/01 14:32:05;;;;;;;;;;;2.70;99.90;;;;;;5051885;28;19928;-64
2022/04/01 14:34:35;;;;;;;;;;;2.60;99.90;;;;;;5052531;28;19938;-64
2022/04/01 14:37:05;;;;;;;;;;;2.50;99.90;;;;;;5052743;28;20374;-63
2022/04/01 14:39:33;;;;;;;;;;;2.30;99.90;;;;;;5052898;28;19975;-63
2022/04/01 14:42:01;;;;;;;;;;;2.20;99.90;;;;;;5051919;28;19976;-63
2022/04/01 14:44:30;;;;;;;;;;;2.10;99.90;;;;;;5052632;28;19925;-62
2022/04/01 14:46:58;;;;;;;;;;;2.20;99.90;;;;;;5050098;28;20282;-63
2022/04/01 14:49:27;;;;;;;;;;;2.20;99.90;;;;;;5047163;28;20362;-64
2022/04/01 14:51:57;;;;;;;;;;;2.10;99.90;;;;;;5070599;28;22327;-63
2022/04/01 14:54:26;;;;;;;;;;;2.10;99.90;;;;;;5071177;28;20305;-64
2022/04/01 14:56:54;;;;;;;;;;;2.10;99.90;;;;;;5071527;28;19928;-64
2022/04/01 14:59:22;;;;;;;;;;;2.00;99.90;;;;;;5071572;28;20347;-64
2022/04/01 15:01:50;;;;;;;;;;;2.10;99.90;;;;;;5071493;28;19935;-64